Time;durP1;ratioP1;P1;durP2;ratioP2;P2;SDS_P1;SDS_P2;PMS_P1;PMS_P2;Temp;Humidity;BMP_temperature;BMP_pressure;BME280_temperature;BME280_humidity;BME280_pressure;Samples;Min_cycle;Max_cycle;Signal;HPM_P1;HPM_P2
2021/01/20 00:00:31;;;;;;;2.00;0.70;;;9.40;66.00;;;;;;2336884;53;21042;-67
2021/01/20 00:02:58;;;;;;;2.00;0.52;;;9.50;65.80;;;;;;2359786;53;21516;-69
2021/01/20 00:05:24;;;;;;;1.40;0.50;;;9.60;65.70;;;;;;2609741;52;20978;-71
2021/01/20 00:07:50;;;;;;;2.08;0.68;;;9.60;65.40;;;;;;2588899;52;21916;-70
2021/01/20 00:10:16;;;;;;;2.92;1.25;;;9.70;65.40;;;;;;2357836;53;20926;-70
2021/01/20 00:12:46;;;;;;;4.03;1.60;;;9.80;65.00;;;;;;2595610;52;21478;-70
2021/01/20 00:15:19;;;;;;;3.58;1.58;;;9.80;65.20;;;;;;2594002;52;20978;-69
2021/01/20 00:17:45;;;;;;;4.60;2.00;;;9.90;65.10;;;;;;2349722;53;20915;-69
2021/01/20 00:20:12;;;;;;;5.45;2.20;;;9.90;65.20;;;;;;2586508;53;20967;-69
2021/01/20 00:22:41;;;;;;;4.10;1.73;;;10.00;64.10;;;;;;2324592;53;21535;-70
2021/01/20 00:25:09;;;;;;;4.95;1.70;;;10.00;64.10;;;;;;2571910;53;20978;-69
2021/01/20 00:27:38;;;;;;;4.07;1.45;;;10.00;64.20;;;;;;2561893;53;21011;-69
2021/01/20 00:30:09;;;;;;;5.03;2.22;;;10.00;64.00;;;;;;2345722;53;20946;-68
2021/01/20 00:32:36;;;;;;;6.18;2.55;;;10.00;63.40;;;;;;2364694;53;21046;-69
2021/01/20 00:35:10;;;;;;;5.18;2.22;;;10.10;63.80;;;;;;2338273;53;20980;-68
2021/01/20 00:37:37;;;;;;;4.05;1.50;;;10.10;63.70;;;;;;2594817;52;21747;-69
2021/01/20 00:40:04;;;;;;;3.28;1.10;;;10.10;63.80;;;;;;2590248;52;20932;-69
2021/01/20 00:42:31;;;;;;;3.33;1.30;;;10.10;63.60;;;;;;2591395;52;20939;-69
2021/01/20 00:44:57;;;;;;;6.32;1.92;;;10.10;63.70;;;;;;2338636;53;20947;-69
2021/01/20 00:47:25;;;;;;;5.32;2.03;;;10.10;63.90;;;;;;2591382;52;20962;-69
2021/01/20 00:49:52;;;;;;;10.60;5.43;;;10.10;63.80;;;;;;2352962;53;21010;-69
2021/01/20 00:52:19;;;;;;;10.50;5.45;;;10.10;63.50;;;;;;2598567;52;20998;-69
2021/01/20 00:54:51;;;;;;;8.23;4.15;;;10.10;63.50;;;;;;2582038;52;20968;-69
2021/01/20 00:57:17;;;;;;;5.03;2.10;;;10.00;63.00;;;;;;2570751;52;21014;-69
2021/01/20 00:59:44;;;;;;;3.78;1.30;;;10.00;63.10;;;;;;2347840;53;21000;-69
2021/01/20 01:02:10;;;;;;;3.03;1.23;;;9.90;64.10;;;;;;2350273;53;20999;-69
2021/01/20 01:04:37;;;;;;;3.72;1.30;;;9.80;63.80;;;;;;2589725;52;21406;-69
2021/01/20 01:07:03;;;;;;;3.72;1.50;;;9.70;63.70;;;;;;2583896;52;20964;-69
2021/01/20 01:09:36;;;;;;;2.95;1.20;;;9.60;63.90;;;;;;2586888;52;21387;-69
2021/01/20 01:12:03;;;;;;;2.83;1.00;;;9.50;63.80;;;;;;2585779;52;21031;-69
2021/01/20 01:14:29;;;;;;;2.65;1.02;;;9.40;63.80;;;;;;2597338;52;21733;-69
2021/01/20 01:16:56;;;;;;;2.30;1.00;;;9.30;63.80;;;;;;2581503;53;21406;-69
2021/01/20 01:19:22;;;;;;;2.35;0.80;;;9.20;63.80;;;;;;2580249;53;21006;-69
2021/01/20 01:21:49;;;;;;;1.85;0.70;;;9.10;64.00;;;;;;2619017;52;21064;-68
2021/01/20 01:24:17;;;;;;;1.12;0.55;;;9.10;64.30;;;;;;2353480;54;21908;-69
2021/01/20 01:26:43;;;;;;;0.93;0.40;;;9.00;64.20;;;;;;2596593;52;20992;-69
2021/01/20 01:29:10;;;;;;;0.90;0.47;;;8.90;64.20;;;;;;2585069;52;20960;-70
2021/01/20 01:31:36;;;;;;;1.20;0.50;;;8.90;64.20;;;;;;2578292;52;21059;-69
2021/01/20 01:34:02;;;;;;;0.80;0.40;;;8.80;64.20;;;;;;2335951;54;20956;-69
2021/01/20 01:36:28;;;;;;;1.40;0.55;;;8.70;64.30;;;;;;2591827;52;21007;-69
2021/01/20 01:38:55;;;;;;;1.27;0.50;;;8.60;64.50;;;;;;2346257;54;22074;-69
2021/01/20 01:41:24;;;;;;;1.27;0.50;;;8.60;64.80;;;;;;2359129;54;21045;-69
2021/01/20 01:43:55;;;;;;;1.33;0.57;;;8.50;64.80;;;;;;2583319;52;20995;-69
2021/01/20 01:46:21;;;;;;;1.45;0.50;;;8.50;65.40;;;;;;2364574;53;21010;-68
2021/01/20 01:48:48;;;;;;;1.00;0.50;;;8.50;65.90;;;;;;2342683;54;20958;-70
2021/01/20 01:51:14;;;;;;;2.20;0.60;;;8.60;66.30;;;;;;2345278;54;21042;-70
2021/01/20 01:53:42;;;;;;;1.30;0.60;;;8.60;66.40;;;;;;2590273;52;21493;-68
2021/01/20 01:56:26;;;;;;;1.75;0.60;;;8.60;66.50;;;;;;2603431;52;21488;-69
2021/01/20 01:58:52;;;;;;;1.70;0.60;;;8.60;65.70;;;;;;2354161;53;21065;-70
2021/01/20 02:01:21;;;;;;;1.90;0.80;;;8.60;66.00;;;;;;2579969;52;20932;-68
2021/01/20 02:03:49;;;;;;;2.28;0.80;;;8.60;65.60;;;;;;2330813;54;20974;-69
2021/01/20 02:06:16;;;;;;;2.33;0.88;;;8.50;65.30;;;;;;2578052;53;20953;-69
2021/01/20 02:08:43;;;;;;;2.03;0.70;;;8.50;65.10;;;;;;2562822;52;21057;-69
2021/01/20 02:17:59;;;;;;;1.80;0.70;;;8.40;65.00;;;;;;2610480;52;21031;-70
2021/01/20 02:23:32;;;;;;;4.75;1.77;;;8.30;64.60;;;;;;2603013;52;21524;-69
2021/01/20 02:26:32;;;;;;;2.40;0.90;;;8.40;65.40;;;;;;2350654;54;20939;-69
2021/01/20 02:30:33;;;;;;;2.15;0.70;;;8.40;66.60;;;;;;2584286;52;21016;-69
2021/01/20 02:33:03;;;;;;;1.65;0.60;;;8.50;66.10;;;;;;2618461;52;20930;-69
2021/01/20 02:35:29;;;;;;;2.22;0.80;;;8.50;67.50;;;;;;2599144;52;21729;-69
2021/01/20 02:37:55;;;;;;;2.22;0.80;;;8.60;67.70;;;;;;2344700;54;21015;-69
2021/01/20 02:40:22;;;;;;;1.12;0.50;;;8.60;67.60;;;;;;2551775;52;21056;-69
2021/01/20 02:42:49;;;;;;;2.90;1.02;;;8.60;67.40;;;;;;2580864;52;21623;-69
2021/01/20 02:45:16;;;;;;;2.87;0.90;;;8.60;66.90;;;;;;2602932;52;21764;-69
2021/01/20 02:47:43;;;;;;;3.72;0.98;;;8.50;66.60;;;;;;2606276;52;21034;-69
2021/01/20 02:50:09;;;;;;;6.15;3.75;;;8.50;66.50;;;;;;2582360;52;20990;-69
2021/01/20 02:59:25;;;;;;;3.80;2.15;;;8.50;66.30;;;;;;2588013;52;20922;-69
2021/01/20 03:01:52;;;;;;;1.30;0.60;;;8.40;64.80;;;;;;2591452;52;20947;-68
2021/01/20 03:04:19;;;;;;;1.42;0.60;;;8.30;65.60;;;;;;2589059;52;21079;-69
2021/01/20 03:06:46;;;;;;;0.57;0.32;;;8.20;65.40;;;;;;2591185;52;20904;-68
2021/01/20 03:09:15;;;;;;;1.27;0.40;;;8.10;65.40;;;;;;2339143;54;20954;-69
2021/01/20 03:11:49;;;;;;;1.33;0.50;;;8.00;65.20;;;;;;2595950;52;21668;-69
2021/01/20 03:14:22;;;;;;;1.50;0.60;;;8.00;65.40;;;;;;2585144;52;20994;-68
2021/01/20 03:16:49;;;;;;;1.60;0.60;;;7.90;65.40;;;;;;2549956;53;21031;-68
2021/01/20 03:19:15;;;;;;;1.50;0.60;;;7.80;65.70;;;;;;2562144;53;20984;-68
2021/01/20 03:21:41;;;;;;;2.90;1.00;;;7.70;65.80;;;;;;2566765;52;21515;-69
2021/01/20 03:24:08;;;;;;;4.40;1.23;;;7.70;66.00;;;;;;2557281;52;20999;-69
2021/01/20 03:26:34;;;;;;;3.40;1.25;;;7.70;66.20;;;;;;2351126;54;21471;-68
2021/01/20 03:29:00;;;;;;;3.28;1.23;;;7.60;66.40;;;;;;2334673;54;20960;-69
2021/01/20 03:31:27;;;;;;;3.37;1.15;;;7.60;67.50;;;;;;2580001;53;21078;-69
2021/01/20 03:33:53;;;;;;;2.20;0.93;;;7.60;67.00;;;;;;2588947;52;20994;-68
2021/01/20 03:36:19;;;;;;;2.50;0.90;;;7.60;67.10;;;;;;2356476;54;21999;-69
2021/01/20 03:38:46;;;;;;;2.08;0.60;;;7.60;67.00;;;;;;2339998;54;20950;-69
2021/01/20 03:41:12;;;;;;;2.90;0.82;;;7.60;66.80;;;;;;2580088;52;21839;-68
2021/01/20 03:43:40;;;;;;;2.25;0.80;;;7.60;66.80;;;;;;2571991;53;20991;-69
2021/01/20 03:46:06;;;;;;;1.75;0.80;;;7.60;66.50;;;;;;2589699;52;20994;-69
2021/01/20 03:48:32;;;;;;;1.85;0.90;;;7.60;66.60;;;;;;2349832;54;20930;-69
2021/01/20 03:50:58;;;;;;;1.55;0.70;;;7.50;66.40;;;;;;2617221;52;20982;-69
2021/01/20 03:53:28;;;;;;;1.62;0.75;;;7.50;66.50;;;;;;2605782;52;20983;-69
2021/01/20 03:55:54;;;;;;;2.15;0.82;;;7.50;66.60;;;;;;2356356;54;21002;-69
2021/01/20 03:58:20;;;;;;;1.87;0.70;;;7.50;66.60;;;;;;2355119;54;21519;-69
2021/01/20 04:00:46;;;;;;;2.75;0.80;;;7.50;66.60;;;;;;2336329;53;20983;-69
2021/01/20 04:03:13;;;;;;;1.95;0.70;;;7.40;66.50;;;;;;2588776;52;21022;-69
2021/01/20 04:05:39;;;;;;;1.10;0.50;;;7.40;66.50;;;;;;2355311;53;20982;-68
2021/01/20 04:08:05;;;;;;;1.08;0.50;;;7.40;66.60;;;;;;2613350;52;21820;-69
2021/01/20 04:10:31;;;;;;;1.37;0.57;;;7.30;66.50;;;;;;2622368;52;20926;-69
2021/01/20 04:12:58;;;;;;;1.85;0.77;;;7.30;66.50;;;;;;2560411;53;21014;-69
2021/01/20 04:15:24;;;;;;;1.45;0.70;;;7.30;66.40;;;;;;2354095;53;20946;-69
2021/01/20 04:17:51;;;;;;;6.82;2.80;;;7.20;66.30;;;;;;2593663;52;21021;-69
2021/01/20 04:20:18;;;;;;;8.48;3.72;;;7.20;66.30;;;;;;2361909;54;20970;-69
2021/01/20 04:22:45;;;;;;;6.30;2.95;;;7.10;66.30;;;;;;2349305;54;21034;-69
2021/01/20 04:25:11;;;;;;;10.80;4.47;;;7.10;66.40;;;;;;2569927;52;21856;-68
2021/01/20 04:27:38;;;;;;;9.25;3.87;;;7.00;66.40;;;;;;2594107;52;21027;-69
2021/01/20 04:30:09;;;;;;;8.63;3.00;;;7.00;66.50;;;;;;2341737;53;21008;-68
2021/01/20 04:32:38;;;;;;;5.87;1.92;;;7.00;66.60;;;;;;2350351;54;20982;-69
2021/01/20 04:35:08;;;;;;;6.15;2.28;;;6.90;66.60;;;;;;2592218;52;20999;-69
2021/01/20 04:37:34;;;;;;;4.95;2.08;;;6.90;66.70;;;;;;2602902;52;20976;-69
2021/01/20 04:40:01;;;;;;;6.68;1.52;;;6.90;66.80;;;;;;2354787;53;21387;-69
2021/01/20 04:42:29;;;;;;;3.22;1.10;;;6.90;66.90;;;;;;2592325;52;21015;-69
2021/01/20 04:44:56;;;;;;;2.53;0.82;;;6.80;66.90;;;;;;2593198;52;21118;-68
2021/01/20 04:47:22;;;;;;;2.30;0.80;;;6.80;67.10;;;;;;2576845;53;20952;-68
2021/01/20 04:49:50;;;;;;;2.15;0.68;;;6.90;67.80;;;;;;2569993;52;20942;-68
2021/01/20 04:52:17;;;;;;;2.50;0.80;;;6.90;68.20;;;;;;2591619;52;20962;-69
2021/01/20 04:54:44;;;;;;;1.37;0.50;;;7.00;68.90;;;;;;2351726;54;21006;-69
2021/01/20 04:57:13;;;;;;;0.93;0.50;;;7.10;69.50;;;;;;2610249;52;20953;-69
2021/01/20 04:59:43;;;;;;;1.52;0.60;;;7.20;69.60;;;;;;2352908;54;20993;-69
2021/01/20 05:02:10;;;;;;;1.83;0.65;;;7.40;69.80;;;;;;2589767;52;21002;-69
2021/01/20 05:04:37;;;;;;;1.05;0.40;;;7.60;70.10;;;;;;2359061;53;21004;-69
2021/01/20 05:07:04;;;;;;;1.42;0.60;;;7.80;70.40;;;;;;2564607;52;20940;-68
2021/01/20 05:09:31;;;;;;;1.67;0.60;;;8.00;70.20;;;;;;2585089;52;21026;-69
2021/01/20 05:11:58;;;;;;;2.20;0.85;;;8.20;70.30;;;;;;2610485;52;21429;-69
2021/01/20 05:14:24;;;;;;;1.40;0.60;;;8.40;69.60;;;;;;2589455;52;20961;-69
2021/01/20 05:16:52;;;;;;;1.60;0.60;;;8.50;69.60;;;;;;2569519;52;20967;-69
2021/01/20 05:19:37;;;;;;;4.00;1.40;;;8.70;68.70;;;;;;2585937;52;21145;-68
2021/01/20 05:22:04;;;;;;;2.80;0.90;;;8.90;67.10;;;;;;2577240;52;21421;-69
2021/01/20 05:24:34;;;;;;;2.05;0.70;;;9.00;67.80;;;;;;2338789;54;21039;-69
2021/01/20 05:27:00;;;;;;;1.60;0.52;;;9.10;67.40;;;;;;2589632;52;21451;-70
2021/01/20 05:29:26;;;;;;;1.55;0.50;;;9.30;67.30;;;;;;2569443;52;21512;-71
2021/01/20 05:31:53;;;;;;;1.58;0.60;;;9.40;66.90;;;;;;2587850;52;20931;-70
2021/01/20 05:35:02;;;;;;;1.35;0.60;;;9.60;66.60;;;;;;2563955;53;20924;-70
2021/01/20 05:37:28;;;;;;;1.83;0.62;;;9.70;64.70;;;;;;2599849;52;21041;-70
2021/01/20 05:41:30;;;;;;;3.17;0.68;;;9.80;66.00;;;;;;2571863;53;21468;-70
2021/01/20 05:44:12;;;;;;;1.55;0.60;;;10.00;63.00;;;;;;2620120;52;20939;-71
2021/01/20 05:46:40;;;;;;;2.10;0.70;;;10.10;64.40;;;;;;2350112;54;20982;-70
2021/01/20 05:49:27;;;;;;;1.30;0.50;;;10.10;63.20;;;;;;2340135;54;21036;-70
2021/01/20 05:51:53;;;;;;;1.83;0.60;;;10.20;62.70;;;;;;2562003;53;21013;-70
2021/01/20 05:54:32;;;;;;;2.08;0.62;;;10.30;63.10;;;;;;2331482;53;20925;-71
2021/01/20 05:57:21;;;;;;;2.53;1.00;;;10.40;62.20;;;;;;2575255;53;20964;-72
2021/01/20 05:59:52;;;;;;;2.28;0.73;;;10.40;61.20;;;;;;2368140;54;20906;-71
2021/01/20 06:02:19;;;;;;;2.53;0.80;;;10.50;62.90;;;;;;2344818;54;20970;-71
2021/01/20 06:04:45;;;;;;;1.67;0.70;;;10.50;62.70;;;;;;2567505;53;20964;-70
2021/01/20 06:07:15;;;;;;;0.80;0.40;;;10.60;62.80;;;;;;2592470;52;20954;-71
2021/01/20 06:09:45;;;;;;;3.10;0.65;;;10.70;63.20;;;;;;2579824;52;21013;-70
2021/01/20 06:12:12;;;;;;;1.60;0.70;;;10.60;61.30;;;;;;2339506;54;20972;-71
2021/01/20 06:14:38;;;;;;;2.00;0.57;;;10.70;61.90;;;;;;2582143;52;21048;-71
2021/01/20 06:18:29;;;;;;;2.10;0.77;;;10.70;62.20;;;;;;2586983;52;20917;-71
2021/01/20 06:20:56;;;;;;;1.80;0.70;;;10.80;59.60;;;;;;2369240;54;20967;-71
2021/01/20 06:23:26;;;;;;;2.15;0.80;;;10.80;61.90;;;;;;2349566;54;21510;-70
2021/01/20 06:26:14;;;;;;;2.40;0.95;;;10.90;61.70;;;;;;2367673;54;21041;-71
2021/01/20 06:28:46;;;;;;;2.42;0.75;;;10.90;61.10;;;;;;2576437;52;21047;-70
2021/01/20 06:31:12;;;;;;;2.47;0.75;;;11.00;61.20;;;;;;2565247;52;20953;-71
2021/01/20 06:33:39;;;;;;;3.35;0.70;;;11.00;61.00;;;;;;2604223;52;21074;-71
2021/01/20 06:36:07;;;;;;;1.08;0.50;;;11.00;61.20;;;;;;2589227;52;20958;-71
2021/01/20 06:38:47;;;;;;;1.87;0.75;;;11.00;61.20;;;;;;2340689;53;21000;-70
2021/01/20 06:41:59;;;;;;;1.65;0.68;;;11.00;59.90;;;;;;2435187;52;1361186;-71
2021/01/20 06:44:25;;;;;;;1.52;0.60;;;11.00;58.70;;;;;;2592203;52;20919;-71
2021/01/20 06:47:01;;;;;;;1.65;0.70;;;11.10;60.50;;;;;;2359816;53;20964;-68
2021/01/20 06:49:32;;;;;;;2.78;0.80;;;11.10;59.70;;;;;;2355763;53;20934;-70
2021/01/20 06:52:09;;;;;;;3.22;1.40;;;11.10;60.40;;;;;;2552898;53;20971;-70
2021/01/20 06:54:42;;;;;;;1.60;0.60;;;11.10;59.80;;;;;;2615035;52;20910;-70
2021/01/20 07:02:16;;;;;;;2.05;0.80;;;11.20;59.80;;;;;;2589767;52;20939;-70
2021/01/20 07:04:53;;;;;;;3.65;0.70;;;11.20;58.60;;;;;;2587081;52;20998;-71
2021/01/20 07:07:50;;;;;;;2.10;0.90;;;11.20;59.80;;;;;;2611289;52;21068;-71
2021/01/20 07:10:20;;;;;;;2.67;0.90;;;11.30;58.40;;;;;;2587841;52;20964;-71
2021/01/20 07:13:13;;;;;;;3.45;1.70;;;11.30;59.60;;;;;;2332108;54;20945;-71
2021/01/20 07:15:46;;;;;;;2.60;1.02;;;11.20;58.70;;;;;;2371522;54;21065;-70
2021/01/20 07:18:15;;;;;;;2.60;1.27;;;11.20;58.90;;;;;;2619586;52;20985;-70
2021/01/20 07:20:42;;;;;;;2.35;0.90;;;11.20;59.50;;;;;;2336066;53;20977;-71
2021/01/20 07:23:08;;;;;;;3.78;1.20;;;11.20;59.10;;;;;;2573699;52;20958;-71
2021/01/20 07:25:35;;;;;;;4.20;1.50;;;11.20;58.50;;;;;;2589851;52;21009;-71
2021/01/20 07:28:01;;;;;;;2.70;0.98;;;11.20;58.40;;;;;;2570399;53;20946;-71
2021/01/20 07:30:27;;;;;;;3.05;0.90;;;11.20;58.60;;;;;;2586623;52;20938;-71
2021/01/20 07:32:56;;;;;;;2.58;0.70;;;11.20;59.40;;;;;;2588147;52;20972;-71
2021/01/20 07:35:28;;;;;;;1.98;0.70;;;11.20;59.30;;;;;;2605977;52;21478;-71
2021/01/20 07:38:01;;;;;;;2.15;0.73;;;11.20;59.30;;;;;;2590552;52;20958;-71
2021/01/20 07:40:28;;;;;;;2.40;0.80;;;11.30;58.40;;;;;;2555869;52;21084;-71
2021/01/20 07:42:55;;;;;;;4.15;0.90;;;11.30;58.20;;;;;;2582330;52;20966;-71
2021/01/20 07:46:22;;;;;;;3.37;0.77;;;11.20;58.70;;;;;;2622710;52;21617;-71
2021/01/20 07:48:49;;;;;;;1.92;0.70;;;11.30;57.80;;;;;;2325748;55;20944;-71
2021/01/20 07:51:19;;;;;;;2.35;0.80;;;11.30;58.90;;;;;;2549286;53;20958;-71
2021/01/20 07:54:01;;;;;;;2.35;0.90;;;11.40;59.00;;;;;;2567260;53;20955;-72
2021/01/20 07:56:28;;;;;;;3.03;0.77;;;11.40;58.50;;;;;;2551434;53;21065;-71
2021/01/20 07:58:56;;;;;;;2.60;0.90;;;11.40;59.00;;;;;;2574795;53;21044;-70
2021/01/20 08:01:30;;;;;;;2.12;0.90;;;11.40;59.00;;;;;;2549477;53;21037;-70
2021/01/20 08:03:57;;;;;;;1.92;0.80;;;11.50;58.70;;;;;;2591637;52;20959;-71
2021/01/20 08:06:25;;;;;;;4.37;1.12;;;11.50;58.90;;;;;;2570626;53;21000;-71
2021/01/20 08:08:55;;;;;;;4.90;2.33;;;11.50;58.70;;;;;;2321624;54;20891;-70
2021/01/20 08:11:22;;;;;;;4.25;1.87;;;11.60;58.50;;;;;;2321774;53;21004;-70
2021/01/20 08:13:49;;;;;;;2.65;1.12;;;11.60;58.80;;;;;;2577130;52;20917;-70
2021/01/20 08:16:15;;;;;;;3.05;1.00;;;11.70;59.20;;;;;;2563990;52;20942;-69
2021/01/20 08:18:43;;;;;;;3.87;1.27;;;11.70;59.50;;;;;;2605870;52;21013;-70
2021/01/20 08:21:09;;;;;;;4.95;1.42;;;11.80;59.40;;;;;;2350680;54;20996;-70
2021/01/20 08:23:49;;;;;;;2.75;1.08;;;11.80;59.00;;;;;;2330464;54;21155;-71
2021/01/20 08:26:16;;;;;;;10.27;5.37;;;11.80;58.50;;;;;;2370779;54;20974;-70
2021/01/20 08:29:10;;;;;;;6.10;2.30;;;11.90;59.10;;;;;;2364644;54;20975;-71
2021/01/20 08:31:38;;;;;;;3.72;1.40;;;11.90;57.10;;;;;;2559001;53;21061;-71
2021/01/20 08:34:23;;;;;;;2.53;0.90;;;12.00;58.60;;;;;;2594841;52;20935;-71
2021/01/20 08:37:40;;;;;;;2.72;0.90;;;12.00;57.60;;;;;;2366204;54;20953;-72
2021/01/20 08:40:12;;;;;;;2.72;0.90;;;12.10;57.70;;;;;;2369867;54;20974;-71
2021/01/20 08:42:39;;;;;;;2.05;0.82;;;12.20;58.50;;;;;;2341539;53;21763;-71
2021/01/20 08:45:42;;;;;;;2.90;1.00;;;12.20;58.70;;;;;;2351374;53;25162;-71
2021/01/20 08:48:09;;;;;;;;;;;12.30;57.90;;;;;;2355874;54;21019;-71
2021/01/20 08:50:56;;;;;;;3.05;0.90;;;12.30;57.10;;;;;;2594689;52;20094;-71
2021/01/20 08:53:27;;;;;;;2.37;0.82;;;12.40;57.30;;;;;;2600248;52;20963;-70
2021/01/20 08:55:54;;;;;;;3.08;0.90;;;12.40;58.40;;;;;;2350272;54;20941;-71
2021/01/20 08:58:33;;;;;;;2.22;0.80;;;12.40;58.40;;;;;;2623898;52;21042;-71
2021/01/20 09:01:09;;;;;;;2.08;0.80;;;12.50;58.10;;;;;;2582021;53;21031;-72
2021/01/20 09:03:36;;;;;;;2.42;0.80;;;12.50;58.50;;;;;;2580616;53;21007;-70
2021/01/20 09:06:13;;;;;;;2.10;0.90;;;12.60;58.70;;;;;;2342759;54;21048;-71
2021/01/20 09:08:39;;;;;;;4.32;1.73;;;12.60;57.90;;;;;;2572146;52;20970;-71
2021/01/20 09:11:05;;;;;;;5.68;2.35;;;12.60;58.60;;;;;;2549218;52;20974;-70
2021/01/20 09:13:33;;;;;;;7.25;2.80;;;12.70;58.80;;;;;;2554341;53;20995;-70
2021/01/20 09:16:02;;;;;;;8.93;3.30;;;12.70;58.90;;;;;;2556696;53;20973;-71
2021/01/20 09:18:29;;;;;;;8.88;3.22;;;12.70;58.40;;;;;;2531077;54;20991;-69
2021/01/20 09:20:56;;;;;;;7.20;2.67;;;12.80;59.00;;;;;;2574466;53;21113;-70
2021/01/20 09:23:22;;;;;;;6.10;2.12;;;12.80;58.90;;;;;;2581703;52;20969;-70
2021/01/20 09:25:48;;;;;;;4.53;1.50;;;12.80;59.30;;;;;;2583575;53;21817;-70
2021/01/20 09:28:15;;;;;;;9.18;3.80;;;12.80;59.00;;;;;;2334491;53;21399;-70
2021/01/20 09:30:41;;;;;;;6.35;2.35;;;12.90;59.10;;;;;;2584245;52;20952;-69
2021/01/20 09:33:08;;;;;;;4.75;1.77;;;12.90;59.20;;;;;;2595573;52;21394;-70
2021/01/20 09:35:35;;;;;;;2.50;1.00;;;13.00;58.40;;;;;;2362954;54;21006;-70
2021/01/20 09:38:02;;;;;;;2.83;0.90;;;13.00;58.30;;;;;;2589179;52;21021;-70
2021/01/20 09:40:30;;;;;;;2.72;1.12;;;13.00;57.90;;;;;;2617419;52;20950;-70
2021/01/20 09:42:57;;;;;;;3.20;1.20;;;13.00;57.80;;;;;;2343333;54;21025;-70
2021/01/20 09:45:27;;;;;;;2.40;0.90;;;13.10;58.50;;;;;;2350385;53;20931;-70
2021/01/20 09:47:55;;;;;;;2.67;0.80;;;13.10;58.60;;;;;;2597127;52;20959;-70
2021/01/20 09:50:21;;;;;;;2.80;0.93;;;13.20;58.90;;;;;;2597005;52;21001;-70
2021/01/20 09:52:48;;;;;;;7.15;1.37;;;13.30;58.90;;;;;;2348711;53;21005;-70
2021/01/20 09:55:14;;;;;;;5.32;1.50;;;13.30;58.60;;;;;;2368260;53;20938;-69
2021/01/20 09:57:41;;;;;;;4.00;1.42;;;13.30;58.80;;;;;;2351357;54;21112;-71
2021/01/20 10:00:14;;;;;;;1.87;0.70;;;13.40;59.20;;;;;;2586276;52;20990;-71
2021/01/20 10:02:40;;;;;;;1.90;0.70;;;13.50;59.60;;;;;;2335719;53;20932;-70
2021/01/20 10:05:09;;;;;;;3.15;0.93;;;13.50;59.80;;;;;;2328542;54;21032;-71
2021/01/20 10:07:35;;;;;;;4.55;1.20;;;13.60;59.60;;;;;;2584613;52;21375;-71
2021/01/20 10:10:06;;;;;;;5.45;1.50;;;13.60;59.70;;;;;;2599085;52;21498;-71
2021/01/20 10:12:35;;;;;;;4.22;1.10;;;13.70;59.80;;;;;;2606567;52;20973;-71
2021/01/20 10:15:03;;;;;;;2.97;0.98;;;13.80;59.90;;;;;;2349255;54;21026;-69
2021/01/20 10:17:30;;;;;;;2.35;0.80;;;13.80;58.90;;;;;;2609597;52;20960;-71
2021/01/20 10:19:56;;;;;;;4.68;1.52;;;13.80;58.80;;;;;;2592750;52;21655;-71
2021/01/20 10:22:23;;;;;;;4.35;1.40;;;13.90;59.10;;;;;;2584684;52;21043;-71
2021/01/20 10:24:51;;;;;;;5.75;1.67;;;13.90;59.00;;;;;;2590141;52;21006;-71
2021/01/20 10:27:33;;;;;;;3.08;1.15;;;14.00;58.80;;;;;;2581946;52;20947;-70
2021/01/20 10:29:59;;;;;;;2.40;0.80;;;14.10;57.80;;;;;;2340965;53;21766;-70
2021/01/20 10:32:27;;;;;;;2.00;0.85;;;14.10;59.40;;;;;;2597693;52;21006;-71
2021/01/20 10:34:54;;;;;;;2.80;0.60;;;14.20;59.10;;;;;;2592333;52;21025;-70
2021/01/20 10:37:21;;;;;;;2.87;0.70;;;14.20;58.90;;;;;;2608240;52;21063;-71
2021/01/20 10:39:47;;;;;;;2.83;0.80;;;14.30;58.60;;;;;;2597039;52;20929;-71
2021/01/20 10:42:14;;;;;;;5.93;1.95;;;14.30;58.90;;;;;;2593355;52;21051;-71
2021/01/20 10:44:47;;;;;;;4.37;1.80;;;14.40;58.60;;;;;;2590919;52;21563;-71
2021/01/20 10:47:14;;;;;;;2.55;1.12;;;14.40;58.60;;;;;;2349277;53;20926;-70
2021/01/20 10:49:41;;;;;;;2.17;0.60;;;14.50;58.30;;;;;;2347341;54;21629;-70
2021/01/20 10:52:07;;;;;;;2.37;0.57;;;14.50;58.60;;;;;;2588989;52;20937;-71
2021/01/20 10:54:33;;;;;;;3.62;0.60;;;14.60;58.60;;;;;;2612861;52;20946;-70
2021/01/20 10:57:03;;;;;;;2.05;0.73;;;14.60;59.30;;;;;;2565693;52;21076;-71
2021/01/20 10:59:39;;;;;;;1.87;0.77;;;14.70;59.70;;;;;;2345699;54;21000;-71
2021/01/20 11:02:06;;;;;;;1.65;0.62;;;14.80;59.70;;;;;;2582032;52;21040;-70
2021/01/20 11:04:32;;;;;;;2.40;0.80;;;14.90;60.20;;;;;;2328516;54;21019;-70
2021/01/20 11:07:02;;;;;;;21.33;8.60;;;15.00;60.40;;;;;;2318397;54;20997;-71
2021/01/20 11:09:30;;;;;;;11.90;5.20;;;15.10;60.10;;;;;;2582620;53;21016;-71
2021/01/20 11:12:02;;;;;;;5.53;2.40;;;15.20;59.80;;;;;;2621711;52;21300;-70
2021/01/20 11:14:29;;;;;;;3.60;1.15;;;15.30;58.90;;;;;;2312537;54;20963;-70
2021/01/20 11:16:56;;;;;;;2.65;1.00;;;15.30;59.50;;;;;;2570223;53;21168;-70
2021/01/20 11:19:23;;;;;;;4.15;1.17;;;15.40;59.20;;;;;;2581953;52;21826;-70
2021/01/20 11:21:54;;;;;;;2.03;0.70;;;15.50;58.70;;;;;;2549416;53;21552;-71
2021/01/20 11:24:22;;;;;;;1.37;0.50;;;15.50;58.90;;;;;;2588040;53;20972;-71
2021/01/20 11:26:49;;;;;;;2.20;0.68;;;15.50;58.20;;;;;;2586448;52;21008;-71
2021/01/20 11:29:15;;;;;;;1.77;0.52;;;15.60;58.70;;;;;;2571116;52;21008;-70
2021/01/20 11:31:42;;;;;;;1.77;0.75;;;15.60;58.90;;;;;;2590880;52;20997;-70
2021/01/20 11:34:08;;;;;;;1.20;0.47;;;15.70;58.40;;;;;;2612853;52;20921;-70
2021/01/20 11:36:36;;;;;;;2.47;0.70;;;15.80;58.70;;;;;;2623147;52;20934;-70
2021/01/20 11:39:06;;;;;;;2.30;0.60;;;15.80;58.20;;;;;;2603658;52;20964;-71
2021/01/20 11:41:34;;;;;;;1.55;0.52;;;15.90;57.40;;;;;;2602159;52;21085;-70
2021/01/20 11:44:00;;;;;;;1.67;0.60;;;15.90;57.50;;;;;;2599749;52;20918;-70
2021/01/20 11:46:26;;;;;;;1.20;0.50;;;16.00;56.50;;;;;;2370823;53;20993;-70
2021/01/20 11:49:07;;;;;;;1.58;0.50;;;16.10;56.70;;;;;;2605121;52;21032;-70
2021/01/20 11:51:35;;;;;;;2.87;0.73;;;16.20;56.50;;;;;;2591046;52;20951;-70
2021/01/20 11:54:01;;;;;;;1.00;0.47;;;16.30;57.10;;;;;;2610176;52;21001;-69
2021/01/20 11:56:28;;;;;;;2.25;0.65;;;16.40;55.90;;;;;;2368996;53;20942;-71
2021/01/20 11:58:55;;;;;;;2.78;0.82;;;16.50;55.70;;;;;;2354303;53;21693;-70
2021/01/20 12:01:22;;;;;;;2.60;0.90;;;16.50;53.80;;;;;;2592917;52;21018;-71
2021/01/20 12:03:50;;;;;;;2.42;0.70;;;16.60;54.70;;;;;;2597565;52;21040;-71
2021/01/20 12:06:17;;;;;;;1.80;0.62;;;16.60;53.40;;;;;;2574813;53;20954;-71
2021/01/20 12:08:44;;;;;;;2.90;0.73;;;16.70;54.50;;;;;;2577187;52;20975;-70
2021/01/20 12:11:11;;;;;;;2.35;0.70;;;16.70;54.30;;;;;;2342547;53;20964;-70
2021/01/20 12:13:38;;;;;;;1.20;0.50;;;16.80;54.10;;;;;;2601869;52;21042;-70
2021/01/20 12:16:06;;;;;;;1.48;0.50;;;16.80;54.80;;;;;;2598019;52;21013;-70
2021/01/20 12:18:33;;;;;;;1.80;0.70;;;16.80;53.20;;;;;;2355503;54;20932;-70
2021/01/20 12:21:02;;;;;;;2.10;0.60;;;16.80;54.20;;;;;;2354186;54;21449;-70
2021/01/20 12:23:29;;;;;;;2.12;0.60;;;16.80;53.30;;;;;;2569907;52;21028;-70
2021/01/20 12:25:55;;;;;;;2.00;0.52;;;16.80;54.30;;;;;;2615979;52;20995;-70
2021/01/20 12:28:22;;;;;;;2.28;0.80;;;16.90;54.40;;;;;;2599218;52;20969;-70
2021/01/20 12:30:49;;;;;;;2.72;0.98;;;16.90;54.20;;;;;;2587176;52;20975;-70
2021/01/20 12:33:15;;;;;;;2.70;0.70;;;16.90;53.70;;;;;;2348151;54;21046;-70
2021/01/20 12:35:44;;;;;;;2.00;0.70;;;16.90;54.30;;;;;;2609654;52;21543;-71
2021/01/20 12:38:10;;;;;;;2.75;0.80;;;16.90;53.30;;;;;;2588913;52;20978;-69
2021/01/20 12:40:37;;;;;;;3.30;1.55;;;17.00;53.00;;;;;;2579292;52;20966;-68
2021/01/20 12:43:04;;;;;;;2.78;0.85;;;16.90;53.40;;;;;;2594996;52;21637;-68
2021/01/20 12:45:32;;;;;;;3.83;0.90;;;16.90;52.00;;;;;;2368096;53;21569;-68
2021/01/20 12:48:02;;;;;;;4.12;0.90;;;16.80;52.30;;;;;;2605648;52;21559;-68
2021/01/20 12:50:29;;;;;;;2.50;0.77;;;16.80;51.40;;;;;;2594934;52;20951;-72
2021/01/20 12:52:57;;;;;;;2.42;0.73;;;16.70;51.40;;;;;;2593543;52;21490;-72
2021/01/20 12:55:25;;;;;;;2.53;0.70;;;16.70;51.40;;;;;;2593561;52;21035;-71
2021/01/20 12:57:53;;;;;;;2.92;0.88;;;16.60;51.60;;;;;;2591984;52;21723;-70
2021/01/20 13:00:21;;;;;;;3.55;1.37;;;16.60;51.50;;;;;;2608001;52;21089;-71
2021/01/20 13:02:48;;;;;;;3.80;0.95;;;16.50;51.60;;;;;;2608112;52;20990;-71
2021/01/20 13:05:15;;;;;;;3.60;1.10;;;16.50;51.10;;;;;;2371196;53;20922;-71
2021/01/20 13:07:43;;;;;;;2.97;0.77;;;16.50;50.40;;;;;;2603024;52;22219;-71
2021/01/20 13:10:10;;;;;;;1.52;0.57;;;16.50;51.30;;;;;;2596678;52;20939;-70
2021/01/20 13:12:37;;;;;;;4.55;1.48;;;16.50;51.20;;;;;;2610230;52;20973;-71
2021/01/20 13:15:05;;;;;;;4.53;1.20;;;16.50;51.30;;;;;;2589379;52;21524;-71
2021/01/20 13:17:31;;;;;;;2.80;0.80;;;16.60;52.00;;;;;;2593852;52;21013;-69
2021/01/20 13:19:58;;;;;;;3.70;0.82;;;16.60;51.60;;;;;;2615408;52;20946;-68
2021/01/20 13:22:24;;;;;;;2.55;0.85;;;16.60;51.40;;;;;;2363262;53;20956;-71
2021/01/20 13:24:51;;;;;;;2.10;0.70;;;16.70;51.00;;;;;;2348805;53;21046;-71
2021/01/20 13:27:20;;;;;;;2.80;0.88;;;16.70;51.40;;;;;;2349117;53;20935;-70